createdAt,value
2022-09-11T00:04:37.721Z,15.08
2022-09-11T00:09:40.457Z,15.01
2022-09-11T00:14:43.169Z,14.90
2022-09-11T00:19:45.930Z,14.82
2022-09-11T00:24:48.753Z,14.80
2022-09-11T00:29:51.933Z,14.79
2022-09-11T00:34:54.762Z,14.76
2022-09-11T00:39:57.761Z,14.68
2022-09-11T00:45:06.736Z,14.66
2022-09-11T00:50:19.550Z,14.59
2022-09-11T00:55:27.563Z,14.57
2022-09-11T01:00:31.257Z,14.54
2022-09-11T01:05:39.310Z,14.51
2022-09-11T01:11:13.518Z,14.52
2022-09-11T01:16:33.785Z,14.50
2022-09-11T01:22:24.293Z,14.46
2022-09-11T01:27:50.840Z,14.39
2022-09-11T01:33:25.369Z,14.33
2022-09-11T01:39:00.760Z,14.29
2022-09-11T01:44:27.998Z,14.21
2022-09-11T01:49:43.772Z,14.18
2022-09-11T01:54:59.810Z,14.16
2022-09-11T02:00:07.850Z,14.11
2022-09-11T02:05:33.724Z,14.05
2022-09-11T02:10:44.220Z,14.05
2022-09-11T02:16:05.656Z,14.03
2022-09-11T02:21:08.490Z,14.03
2022-09-11T02:26:14.810Z,14.05
2022-09-11T02:31:19.955Z,14.08
2022-09-11T02:36:28.665Z,14.11
2022-09-11T02:41:51.851Z,14.12
2022-09-11T02:47:05.622Z,14.14
2022-09-11T02:52:53.498Z,14.15
2022-09-11T02:58:18.161Z,14.10
2022-09-11T03:03:22.816Z,14.11
2022-09-11T03:08:25.753Z,14.08
2022-09-11T03:13:31.568Z,14.06
2022-09-11T03:18:34.802Z,14.06
2022-09-11T03:23:38.467Z,14.08
2022-09-11T03:28:41.486Z,14.06
2022-09-11T03:33:44.212Z,14.07
2022-09-11T03:38:48.121Z,14.10
2022-09-11T03:43:52.061Z,14.09
2022-09-11T03:48:54.871Z,14.12
2022-09-11T03:54:00.912Z,14.14
2022-09-11T03:59:03.645Z,14.12
2022-09-11T04:04:06.513Z,14.15
2022-09-11T04:09:09.275Z,14.22
2022-09-11T04:14:12.334Z,14.20
2022-09-11T04:19:15.276Z,14.24
2022-09-11T04:24:18.050Z,14.22
2022-09-11T04:29:22.548Z,14.13
2022-09-11T04:34:26.251Z,14.16
2022-09-11T04:39:29.630Z,14.12
2022-09-11T04:44:32.844Z,14.09
2022-09-11T04:49:36.029Z,14.11
2022-09-11T04:54:38.777Z,14.13
2022-09-11T04:59:41.539Z,14.18
2022-09-11T05:04:44.901Z,14.26
2022-09-11T05:09:48.029Z,14.33
2022-09-11T05:14:51.491Z,14.37
2022-09-11T05:19:54.331Z,14.42
2022-09-11T05:24:57.539Z,14.46
2022-09-11T05:30:01.703Z,14.51
2022-09-11T05:35:05.496Z,14.60
2022-09-11T05:40:09.084Z,14.72
2022-09-11T05:45:13.884Z,14.90
2022-09-11T05:50:16.749Z,15.10
2022-09-11T05:55:19.993Z,15.35
2022-09-11T06:00:22.894Z,15.56
2022-09-11T06:05:25.607Z,15.82
2022-09-11T06:10:28.288Z,16.01
2022-09-11T06:15:46.147Z,16.18
2022-09-11T06:21:00.612Z,16.27
2022-09-11T06:26:11.423Z,16.23
2022-09-11T06:31:18.300Z,16.21
2022-09-11T06:36:33.009Z,16.30
2022-09-11T06:41:35.883Z,16.45
2022-09-11T06:46:45.049Z,16.60
2022-09-11T06:51:48.032Z,16.76
2022-09-11T06:56:50.730Z,16.94
2022-09-11T07:01:53.599Z,17.17
2022-09-11T07:06:57.243Z,17.39
2022-09-11T07:12:00.049Z,17.54
2022-09-11T07:17:03.233Z,17.72
2022-09-11T07:22:05.977Z,17.87
2022-09-11T07:27:08.773Z,17.99
2022-09-11T07:32:11.779Z,18.18
2022-09-11T07:37:15.146Z,18.40
2022-09-11T07:42:20.654Z,18.61
2022-09-11T07:47:23.499Z,18.80
2022-09-11T07:52:26.966Z,18.93
2022-09-11T07:57:32.397Z,18.91
2022-09-11T08:02:35.375Z,19.02
2022-09-11T08:07:38.412Z,19.17
2022-09-11T08:12:42.013Z,19.43
2022-09-11T08:17:44.731Z,19.70
2022-09-11T08:22:47.584Z,19.95
2022-09-11T08:27:51.065Z,20.12
2022-09-11T08:32:53.851Z,20.19
2022-09-11T08:37:58.375Z,20.19
2022-09-11T08:43:03.702Z,20.08
2022-09-11T08:48:09.299Z,19.76
2022-09-11T08:53:19.101Z,19.48
2022-09-11T08:58:44.567Z,19.27
2022-09-11T09:04:24.121Z,19.09
2022-09-11T09:09:47.431Z,19.16
2022-09-11T09:15:08.144Z,19.35
2022-09-11T09:20:21.211Z,19.52
2022-09-11T09:25:25.935Z,19.66
2022-09-11T09:30:37.874Z,19.87
2022-09-11T09:35:45.610Z,20.07
2022-09-11T09:41:11.404Z,20.32
2022-09-11T09:46:26.186Z,20.62
2022-09-11T09:51:29.354Z,20.81
2022-09-11T09:56:37.722Z,20.84
2022-09-11T10:01:46.795Z,21.04
2022-09-11T10:07:11.587Z,21.13
2022-09-11T10:12:22.583Z,20.88
2022-09-11T10:17:38.419Z,20.56
2022-09-11T10:22:41.591Z,20.12
2022-09-11T10:28:05.896Z,19.76
2022-09-11T10:33:28.425Z,20.07
2022-09-11T10:38:36.911Z,20.53
2022-09-11T10:44:11.211Z,20.72
2022-09-11T10:49:19.409Z,20.85
2022-09-11T10:54:54.025Z,20.76
2022-09-11T11:00:10.027Z,20.92
2022-09-11T11:05:27.971Z,21.63
2022-09-11T11:11:14.811Z,22.13
2022-09-11T11:16:47.118Z,22.24
2022-09-11T11:22:25.548Z,21.88
2022-09-11T11:27:50.582Z,21.48
2022-09-11T11:33:26.084Z,21.02
2022-09-11T11:39:07.488Z,20.74
2022-09-11T11:44:21.885Z,20.57
2022-09-11T11:49:38.854Z,20.47
2022-09-11T11:54:52.486Z,20.34
2022-09-11T12:00:10.553Z,20.51
2022-09-11T12:05:19.373Z,21.02
2022-09-11T12:10:36.126Z,21.54
2022-09-11T12:15:39.247Z,21.85
2022-09-11T12:20:45.325Z,22.06
2022-09-11T12:25:53.629Z,22.14
2022-09-11T12:31:11.783Z,22.17
2022-09-11T12:36:49.257Z,22.20
2022-09-11T12:41:52.219Z,22.09
2022-09-11T12:46:54.913Z,22.13
2022-09-11T12:52:01.598Z,21.82
2022-09-11T12:57:28.100Z,21.71
2022-09-11T13:02:44.710Z,21.69
2022-09-11T13:07:52.204Z,21.67
2022-09-11T13:12:57.284Z,21.62
2022-09-11T13:17:59.994Z,21.60
2022-09-11T13:23:21.159Z,21.53
2022-09-11T13:28:27.364Z,21.60
2022-09-11T13:33:32.215Z,21.69
2022-09-11T13:38:37.274Z,21.66
2022-09-11T13:43:50.090Z,21.63
2022-09-11T13:49:10.254Z,21.53
2022-09-11T13:54:29.887Z,21.52
2022-09-11T13:59:56.468Z,21.44
2022-09-11T14:05:22.027Z,21.52
2022-09-11T14:10:33.460Z,21.57
2022-09-11T14:15:53.973Z,21.54
2022-09-11T14:21:00.029Z,21.33
2022-09-11T14:26:16.086Z,20.37
2022-09-11T14:31:34.240Z,19.01
2022-09-11T14:36:49.273Z,18.12
2022-09-11T14:41:55.204Z,17.59
2022-09-11T14:46:59.226Z,17.34
2022-09-11T14:52:02.443Z,17.27
2022-09-11T14:57:20.579Z,17.23
2022-09-11T15:02:27.718Z,17.30
2022-09-11T15:07:30.420Z,17.44
2022-09-11T15:12:33.226Z,17.63
2022-09-11T15:17:37.137Z,17.91
2022-09-11T15:22:40.379Z,18.25
2022-09-11T15:27:43.161Z,18.69
2022-09-11T15:32:46.047Z,19.07
2022-09-11T15:37:49.518Z,19.11
2022-09-11T15:42:52.333Z,19.15
2022-09-11T15:47:55.039Z,18.84
2022-09-11T15:52:58.024Z,18.56
2022-09-11T15:58:01.086Z,18.36
2022-09-11T16:03:05.135Z,18.28
2022-09-11T16:08:07.917Z,18.22
2022-09-11T16:13:10.693Z,18.10
2022-09-11T16:18:13.589Z,17.96
2022-09-11T16:23:16.326Z,17.80
2022-09-11T16:28:19.641Z,17.66
2022-09-11T16:33:24.882Z,17.53
2022-09-11T16:38:29.520Z,17.39
2022-09-11T16:43:32.436Z,17.31
2022-09-11T16:48:39.160Z,17.24
2022-09-11T16:53:42.613Z,17.14
2022-09-11T16:58:46.551Z,17.06
2022-09-11T17:03:52.731Z,17.00
2022-09-11T17:08:56.525Z,16.91
2022-09-11T17:14:02.767Z,16.82
2022-09-11T17:19:07.473Z,16.78
2022-09-11T17:24:12.070Z,16.74
2022-09-11T17:29:15.025Z,16.71
2022-09-11T17:34:17.799Z,16.72
2022-09-11T17:39:20.626Z,16.72
2022-09-11T17:44:24.665Z,16.71
2022-09-11T17:49:27.449Z,16.76
2022-09-11T17:54:30.222Z,16.81
2022-09-11T17:59:33.051Z,16.86
2022-09-11T18:04:36.023Z,16.85
2022-09-11T18:09:38.998Z,16.87
2022-09-11T18:14:43.386Z,16.84
2022-09-11T18:19:46.930Z,16.82
2022-09-11T18:24:53.164Z,16.77
2022-09-11T18:29:55.905Z,16.67
2022-09-11T18:35:00.042Z,16.60
2022-09-11T18:40:03.777Z,16.49
2022-09-11T18:45:07.665Z,16.38
2022-09-11T18:50:10.668Z,16.26
2022-09-11T18:55:13.468Z,16.12
2022-09-11T19:00:17.843Z,16.02
2022-09-11T19:05:21.539Z,15.96
2022-09-11T19:10:24.447Z,15.89
2022-09-11T19:15:27.231Z,15.81
2022-09-11T19:20:30.805Z,15.74
2022-09-11T19:25:35.437Z,15.69
2022-09-11T19:30:41.293Z,15.64
2022-09-11T19:35:55.751Z,15.60
2022-09-11T19:41:00.788Z,15.55
2022-09-11T19:46:05.358Z,15.50
2022-09-11T19:51:23.006Z,15.44
2022-09-11T19:56:27.894Z,15.39
2022-09-11T20:01:31.590Z,15.35
2022-09-11T20:06:35.647Z,15.23
2022-09-11T20:11:38.499Z,15.16
2022-09-11T20:16:41.846Z,15.14
2022-09-11T20:21:44.561Z,15.06
2022-09-11T20:26:47.312Z,15.00
2022-09-11T20:31:51.244Z,14.96
2022-09-11T20:36:54.255Z,14.91
2022-09-11T20:41:57.640Z,14.87
2022-09-11T20:47:00.753Z,14.84
2022-09-11T20:52:03.956Z,14.85
2022-09-11T20:57:07.235Z,14.80
2022-09-11T21:02:11.627Z,14.78
2022-09-11T21:07:14.711Z,14.69
2022-09-11T21:12:17.568Z,14.62
2022-09-11T21:17:20.584Z,14.57
2022-09-11T21:22:24.263Z,14.51
2022-09-11T21:27:27.199Z,14.44
2022-09-11T21:32:30.203Z,14.41
2022-09-11T21:37:33.002Z,14.43
2022-09-11T21:42:35.749Z,14.39
2022-09-11T21:47:38.514Z,14.35
2022-09-11T21:52:41.439Z,14.28
2022-09-11T21:57:44.678Z,14.26
2022-09-11T22:02:47.495Z,14.26
2022-09-11T22:07:50.288Z,14.28
2022-09-11T22:12:53.106Z,14.30
2022-09-11T22:17:55.994Z,14.38
2022-09-11T22:23:00.325Z,14.44
2022-09-11T22:28:04.734Z,14.53
2022-09-11T22:33:07.468Z,14.57
2022-09-11T22:38:10.285Z,14.53
2022-09-11T22:43:13.035Z,14.52
2022-09-11T22:48:15.785Z,14.49
2022-09-11T22:53:19.002Z,14.44
2022-09-11T22:58:23.774Z,14.42
2022-09-11T23:03:27.276Z,14.38
2022-09-11T23:08:38.966Z,14.36
2022-09-11T23:13:44.132Z,14.36
2022-09-11T23:18:48.237Z,14.35
2022-09-11T23:23:54.744Z,14.31
2022-09-11T23:28:58.404Z,14.26
2022-09-11T23:34:06.283Z,14.19
2022-09-11T23:39:09.202Z,14.19
2022-09-11T23:44:12.155Z,14.14
2022-09-11T23:49:15.412Z,14.09
2022-09-11T23:54:18.319Z,14.04
2022-09-11T23:59:21.184Z,14.04
